Latest Weather Observations for Nuriootpa

IDS60901

Issued at 8:01 am CDT Sunday 14 February 2016 (issued every 10 minutes, with the page automatically refreshed every 10 minutes)

About weather observations | Map of Adelaide area stations | Latest observations for Adelaide area | Other Formats
Station Details ID: 023373 Name: NURIOOTPA VITICULTURAL Lat: -34.48 Lon: 139.01 Height: 275.0 m
Data from the previous 72 hours. | See also: Recent months at Nuriootpa
Date/Time
CDT
Tmp

°C
App
Tmp
°C
Dew
Point
°C
Rel
Hum
%
Delta-T

°C
Wind Press
QNH
hPa
Press
MSL
hPa
Rain
since
9 am
mm
Dir
 
Spd
km/h
Gust
km/h
Spd
kts
Gust
kts
14/08:00am 15.3 15.9 11.8 79 1.9 CALM 0 0 0 0 1016.3 1015.2 0.0
14/07:30am 13.0 13.6 11.9 93 0.6 CALM 0 0 0 0 1015.9 1014.7 0.0
14/07:00am 11.9 12.1 10.6 92 0.7 CALM 0 0 0 0 1015.6 1014.4 0.0
14/06:30am 12.1 12.4 10.8 92 0.7 CALM 0 0 0 0 1015.2 1014.0 0.0
14/06:00am 11.1 10.0 9.9 92 0.6 NNE 6 7 3 4 1014.9 1013.7 0.0
14/05:30am 11.0 10.9 9.4 90 0.8 CALM 0 0 0 0 1014.4 1013.2 0.0
14/05:00am 11.7 11.8 10.0 89 0.9 CALM 0 0 0 0 1014.3 1013.1 0.0
14/04:30am 12.2 12.4 10.7 90 0.8 CALM 0 0 0 0 1014.0 1012.9 0.0
14/04:00am 12.7 12.9 10.6 87 1.1 CALM 0 0 0 0 1013.9 1012.8 0.0
14/03:30am 13.7 13.7 11.3 85 1.3 S 2 6 1 3 1013.8 1012.7 0.0
14/03:00am 14.9 14.0 11.4 79 1.9 S 7 9 4 5 1013.8 1012.7 0.0
14/02:30am 15.8 14.6 11.6 76 2.3 SW 9 15 5 8 1013.8 1012.7 0.0
14/02:00am 16.7 15.7 12.4 76 2.4 SSW 9 17 5 9 1013.8 1012.7 0.0
14/01:30am 17.3 15.6 12.3 72 2.8 SSW 13 17 7 9 1014.0 1012.9 0.0
14/01:00am 18.2 16.6 12.7 70 3.1 SSW 13 19 7 10 1014.1 1013.0 0.0
14/12:30am 18.8 18.4 14.0 73 2.8 SSE 9 17 5 9 1014.0 1012.9 0.0
14/12:00am 19.3 18.9 15.3 77 2.4 SW 11 19 6 10 1014.0 1012.9 0.0
 
Date/Time
CDT
Tmp

°C
App
Tmp
°C
Dew
Point
°C
Rel
Hum
%
Delta-T

°C
Wind Press
QNH
hPa
Press
MSL
hPa
Rain
since
9 am
mm
Dir
 
Spd
km/h
Gust
km/h
Spd
kts
Gust
kts
13/11:30pm 19.5 19.2 15.5 77 2.4 SW 11 17 6 9 1014.1 1013.0 0.0
13/11:00pm 19.6 18.9 15.4 77 2.5 SW 13 19 7 10 1014.1 1013.0 0.0
13/10:30pm 19.7 18.6 15.3 76 2.6 WSW 15 24 8 13 1014.1 1013.0 0.0
13/10:00pm 19.8 18.6 16.2 80 2.2 SW 17 24 9 13 1014.0 1012.9 0.0
13/09:30pm 19.9 18.9 16.6 81 2.0 WSW 17 24 9 13 1013.9 1012.8 0.0
13/09:00pm 20.4 19.7 16.5 78 2.4 WSW 15 20 8 11 1013.5 1012.4 0.0
13/08:30pm 21.2 20.4 15.2 68 3.6 WSW 13 20 7 11 1013.1 1012.0 0.0
13/08:00pm 22.0 20.3 14.6 63 4.4 WSW 17 20 9 11 1012.7 1011.5 0.0
13/07:30pm 22.5 20.8 14.6 61 4.7 SW 17 26 9 14 1012.5 1011.3 0.0
13/07:00pm 22.8 20.7 15.2 62 4.6 SW 20 28 11 15 1012.3 1011.1 0.0
13/06:30pm 23.2 21.0 14.9 59 5.0 SW 20 28 11 15 1012.5 1011.3 0.0
13/06:00pm 24.1 21.1 13.8 52 6.1 WSW 22 37 12 20 1012.1 1010.9 0.0
13/05:30pm 25.6 21.6 11.7 42 8.0 WSW 24 33 13 18 1012.1 1010.9 0.0
13/05:00pm 27.2 22.3 8.5 30 10.3 WSW 24 37 13 20 1011.9 1010.7 0.0
13/04:30pm 27.5 22.3 7.4 28 10.9 WSW 24 37 13 20 1012.0 1010.8 0.0
13/04:00pm 29.6 24.5 7.8 25 12.0 WSW 24 39 13 21 1011.9 1010.7 0.0
13/03:30pm 29.7 25.1 9.6 28 11.4 SW 24 35 13 19 1012.0 1010.8 0.0
13/03:00pm 29.6 24.8 8.9 27 11.6 WSW 24 37 13 20 1012.0 1010.8 0.0
13/02:30pm 29.4 24.6 8.9 27 11.5 WSW 24 37 13 20 1012.2 1011.0 0.0
13/02:00pm 30.1 25.1 7.9 25 12.3 WSW 24 39 13 21 1012.1 1010.9 0.0
13/01:30pm 30.7 25.8 8.6 25 12.4 WSW 24 37 13 20 1012.1 1010.9 0.0
13/01:00pm 30.6 25.3 5.1 20 13.5 W 22 33 12 18 1012.4 1011.2 0.0
13/12:30pm 29.9 24.7 2.3 17 13.9 W 19 28 10 15 1012.6 1011.4 0.0
13/12:00pm 29.0 24.2 4.6 21 12.7 W 19 30 10 16 1012.9 1011.8 0.0
13/11:30am 28.5 24.7 5.6 23 12.1 WSW 15 20 8 11 1013.0 1011.9 0.0
13/11:00am 27.0 23.6 5.9 26 11.1 W 13 19 7 10 1013.0 1011.9 0.0
13/10:30am 25.6 23.1 8.1 33 9.5 WSW 11 17 6 9 1013.1 1012.0 0.0
13/10:00am 23.6 22.2 9.6 41 7.7 W 7 13 4 7 1013.5 1012.4 0.0
13/09:30am 22.5 21.0 10.4 46 6.7 SW 9 15 5 8 1013.7 1012.6 0.0
13/09:00am 20.3 19.0 9.8 51 5.7 WSW 7 9 4 5 1013.5 1012.4 0.0
13/08:30am 19.0 17.6 9.5 54 5.1 SW 7 9 4 5 1013.4 1012.3 0.0
13/08:00am 16.6 16.6 9.8 64 3.6 CALM 0 0 0 0 1013.3 1012.2 0.0
13/07:30am 13.7 13.9 10.7 82 1.6 CALM 0 0 0 0 1013.0 1011.9 0.0
13/07:00am 11.7 11.5 9.1 84 1.3 CALM 0 0 0 0 1012.7 1011.5 0.0
13/06:30am 11.8 11.6 9.0 83 1.4 CALM 0 0 0 0 1012.5 1011.3 0.0
13/06:00am 11.9 10.5 8.9 82 1.5 ESE 6 7 3 4 1012.1 1010.9 0.0
13/05:30am 12.1 10.7 9.4 83 1.4 ENE 7 9 4 5 1012.0 1010.8 0.0
13/05:00am 12.1 10.9 9.4 83 1.4 NE 6 7 3 4 1011.9 1010.7 0.0
13/04:30am 12.2 12.2 9.7 85 1.3 CALM 0 0 0 0 1011.9 1010.7 0.0
13/04:00am 11.8 11.8 9.7 87 1.1 CALM 0 0 0 0 1012.0 1010.8 0.0
13/03:30am 12.9 11.8 10.0 82 1.5 NE 6 7 3 4 1011.9 1010.7 0.0
13/03:00am 12.8 12.9 10.1 84 1.4 CALM 0 0 0 0 1012.1 1010.9 0.0
13/02:30am 12.9 13.0 10.2 84 1.4 CALM 0 0 0 0 1012.4 1011.2 0.0
13/02:00am 13.5 13.2 10.1 80 1.8 N 2 6 1 3 1012.6 1011.4 0.0
13/01:30am 13.8 13.2 10.4 80 1.8 S 4 9 2 5 1012.7 1011.5 0.0
13/01:00am 15.1 13.9 10.2 72 2.6 ENE 7 9 4 5 1012.8 1011.6 0.0
13/12:30am 15.9 14.6 10.1 68 3.1 NE 7 9 4 5 1012.9 1011.8 0.0
13/12:00am 16.3 15.1 9.5 64 3.6 NE 6 9 3 5 1013.1 1012.0 0.0
 
Date/Time
CDT
Tmp

°C
App
Tmp
°C
Dew
Point
°C
Rel
Hum
%
Delta-T

°C
Wind Press
QNH
hPa
Press
MSL
hPa
Rain
since
9 am
mm
Dir
 
Spd
km/h
Gust
km/h
Spd
kts
Gust
kts
12/11:30pm 16.6 14.9 9.8 64 3.6 NE 9 9 5 5 1013.3 1012.2 0.0
12/11:00pm 16.7 16.8 10.2 65 3.5 CALM 0 0 0 0 1013.6 1012.5 0.0
12/10:30pm 18.1 17.9 9.0 55 4.8 CALM 0 0 0 0 1013.8 1012.7 0.0
12/10:00pm 21.2 20.1 9.8 48 6.2 WSW 6 7 3 4 1013.8 1012.7 0.0
12/09:30pm 23.1 20.1 7.9 37 8.1 WSW 13 19 7 10 1013.6 1012.5 0.0
12/09:00pm 24.6 21.2 7.8 34 9.0 WSW 15 20 8 11 1013.3 1012.2 0.0
12/08:30pm 26.5 22.5 5.0 25 11.1 WSW 15 22 8 12 1013.1 1012.0 0.0
12/08:00pm 28.4 24.0 2.7 19 12.9 WSW 15 20 8 11 1012.8 1011.6 0.0
12/07:30pm 30.1 26.1 2.7 17 13.9 WSW 13 19 7 10 1012.6 1011.4 0.0
12/07:00pm 30.8 25.6 0.4 14 14.9 WSW 17 24 9 13 1012.4 1011.2 0.0
12/06:30pm 31.5 25.8 -3.9 10 16.2 WSW 17 24 9 13 1012.3 1011.1 0.0
12/06:00pm 32.5 27.2 -0.9 11 16.2 WSW 17 24 9 13 1012.2 1011.0 0.0
12/05:30pm 32.3 26.6 -0.5 12 16.0 W 19 26 10 14 1012.2 1011.0 0.0
12/05:00pm 33.0 27.5 0.9 13 16.1 WSW 19 26 10 14 1012.2 1011.0 0.0
12/04:30pm 32.9 27.7 3.4 15 15.4 WSW 20 26 11 14 1012.3 1011.1 0.0
12/04:00pm 32.9 27.4 3.8 16 15.3 WSW 22 32 12 17 1012.4 1011.2 0.0
12/03:30pm 33.3 28.4 5.0 17 15.2 SW 20 30 11 16 1012.4 1011.2 0.0
12/03:00pm 33.4 29.4 2.7 14 15.9 WNW 13 26 7 14 1012.6 1011.4 0.0
12/02:30pm 32.8 28.5 3.5 15 15.3 NW 15 24 8 13 1012.9 1011.8 0.0
12/02:00pm 32.2 28.3 3.6 16 14.9 W 13 24 7 13 1013.3 1012.2 0.0
12/01:30pm 31.4 28.9 4.7 18 14.1 WNW 7 15 4 8 1013.8 1012.7 0.0
12/01:00pm 31.8 29.5 7.4 22 13.5 NE 9 13 5 7 1014.3 1013.1 0.0
12/12:30pm 29.8 27.5 7.6 25 12.2 NE 9 17 5 9 1014.6 1013.4 0.0
12/12:00pm 29.4 27.2 8.0 26 11.8 ENE 9 15 5 8 1015.0 1013.8 0.0
12/11:30am 28.6 27.2 9.7 30 10.7 ENE 7 15 4 8 1015.2 1014.0 0.0
12/11:00am 27.4 25.4 10.3 34 9.7 NE 11 17 6 9 1015.6 1014.4 0.0
12/10:30am 26.1 24.9 11.7 40 8.3 E 9 15 5 8 1015.8 1014.6 0.0
12/10:00am 24.7 22.7 11.4 43 7.6 ENE 13 20 7 11 1015.8 1014.6 0.0
12/09:30am 23.5 22.2 12.4 49 6.4 E 11 17 6 9 1016.2 1015.1 0.0
12/09:00am 22.3 20.5 12.1 52 5.8 E 13 17 7 9 1016.1 1015.0 0.0
12/08:30am 20.8 19.0 12.2 58 4.9 E 13 20 7 11 1016.2 1015.1 0.0
12/08:00am 19.6 18.1 11.9 61 4.3 E 11 17 6 9 1016.0 1014.8 0.0
12/07:30am 18.1 16.7 12.2 68 3.3 ENE 11 17 6 9 1015.8 1014.6 0.0
12/07:00am 16.3 15.7 12.2 77 2.3 NE 7 9 4 5 1015.5 1014.3 0.0
12/06:30am 16.6 14.8 12.1 75 2.5 ENE 13 15 7 8 1015.4 1014.2 0.0
12/06:00am 16.3 14.8 12.0 75 2.4 ENE 11 13 6 7 1015.1 1013.9 0.0
12/05:30am 16.7 16.4 11.6 72 2.8 SW 4 9 2 5 1015.1 1013.9 0.0
12/05:00am 16.0 16.1 11.6 75 2.4 NE 2 7 1 4 1015.0 1013.8 0.0
12/04:30am 16.7 15.4 11.4 71 2.9 E 9 13 5 7 1014.8 1013.6 0.0
12/04:00am 17.4 15.9 10.6 64 3.7 ESE 9 17 5 9 1014.8 1013.6 0.0
12/03:30am 17.8 15.8 10.0 60 4.2 S 11 19 6 10 1014.7 1013.5 0.0
12/03:00am 17.0 15.4 10.3 64 3.6 ESE 9 17 5 9 1014.9 1013.7 0.0
12/02:30am 16.4 15.9 10.7 69 3.1 SSE 4 9 2 5 1015.1 1013.9 0.0
12/02:00am 18.0 16.5 10.4 61 4.1 S 9 15 5 8 1015.3 1014.1 0.0
12/01:30am 17.2 16.1 10.8 66 3.5 S 7 9 4 5 1015.5 1014.3 0.0
12/01:00am 17.6 16.3 9.9 60 4.1 WSW 7 11 4 6 1015.8 1014.6 0.0
12/12:30am 18.4 16.3 9.6 56 4.7 S 11 20 6 11 1015.7 1014.5 0.0
12/12:00am 18.1 16.4 9.9 58 4.4 S 9 17 5 9 1015.8 1014.6 0.0
 
Date/Time
CDT
Tmp

°C
App
Tmp
°C
Dew
Point
°C
Rel
Hum
%
Delta-T

°C
Wind Press
QNH
hPa
Press
MSL
hPa
Rain
since
9 am
mm
Dir
 
Spd
km/h
Gust
km/h
Spd
kts
Gust
kts
11/11:30pm 18.2 15.7 9.8 58 4.5 S 13 24 7 13 1015.8 1014.6 0.0
11/11:00pm 17.8 15.9 10.4 62 4.0 SSE 11 19 6 10 1016.1 1015.0 0.0
11/10:30pm 18.2 15.8 10.0 58 4.4 S 13 22 7 12 1016.2 1015.1 0.0
11/10:00pm 18.6 16.3 10.3 58 4.5 S 13 20 7 11 1016.0 1014.8 0.0
11/09:30pm 19.2 15.2 10.4 56 4.8 SSE 22 32 12 17 1015.5 1014.3 0.0
11/09:00pm 20.2 15.9 10.8 54 5.2 SE 24 35 13 19 1015.2 1014.0 0.0
11/08:30pm 21.8 18.4 10.6 49 6.2 SE 19 30 10 16 1015.0 1013.8 0.0
11/08:00pm 23.7 19.4 9.3 40 7.9 SE 22 35 12 19 1014.8 1013.6 0.0
11/07:30pm 25.5 21.5 8.9 35 9.1 SE 20 32 11 17 1014.7 1013.5 0.0
11/07:00pm 26.4 21.8 8.0 31 10.0 SSE 22 32 12 17 1014.4 1013.2 0.0
11/06:30pm 28.0 23.5 6.8 26 11.4 SE 20 30 11 16 1014.0 1012.9 0.0
11/06:00pm 28.9 24.0 5.0 22 12.5 SE 20 26 11 14 1013.8 1012.7 0.0
11/05:30pm 30.0 25.6 4.6 20 13.3 SE 17 28 9 15 1013.7 1012.6 0.0
11/05:00pm 29.7 25.2 4.0 19 13.3 SE 17 26 9 14 1013.8 1012.7 0.0
11/04:30pm 30.1 25.7 4.8 20 13.3 ESE 17 28 9 15 1013.9 1012.8 0.0
11/04:00pm 30.0 25.6 4.9 20 13.2 ESE 17 26 9 14 1014.1 1013.0 0.0
11/03:30pm 29.6 25.3 5.1 21 12.9 E 17 26 9 14 1014.4 1013.2 0.0
11/03:00pm 29.7 26.5 5.3 21 12.9 ESE 11 24 6 13 1014.5 1013.3 0.0
11/02:30pm 29.7 25.9 5.9 22 12.7 SE 15 33 8 18 1014.6 1013.4 0.0
11/02:00pm 28.9 25.1 6.0 23 12.2 ESE 15 24 8 13 1014.9 1013.7 0.0
11/01:30pm 28.8 24.9 7.0 25 11.8 ESE 17 26 9 14 1015.1 1013.9 0.0
11/01:00pm 28.3 24.1 7.5 27 11.3 ESE 19 28 10 15 1015.3 1014.1 0.0
11/12:30pm 27.8 23.7 7.8 28 10.9 ESE 19 28 10 15 1015.5 1014.3 0.0
11/12:00pm 26.4 22.1 7.2 29 10.3 E 19 30 10 16 1015.6 1014.4 0.0
11/11:30am 26.4 22.6 9.0 33 9.6 ESE 19 30 10 16 1015.9 1014.7 0.0
11/11:00am 24.7 19.6 7.7 33 9.1 ESE 24 37 13 20 1016.1 1015.0 0.0
11/10:30am 23.8 19.9 9.6 40 7.8 SE 20 35 11 19 1016.4 1015.3 0.0
11/10:00am 23.1 19.2 9.6 42 7.4 SE 20 32 11 17 1016.8 1015.7 0.0
11/09:30am 21.6 18.1 10.1 48 6.3 SE 19 26 10 14 1016.9 1015.8 0.0
11/09:00am 20.2 16.7 10.8 54 5.2 SSE 20 33 11 18 1016.9 1015.8 0.0
11/08:30am 19.7 18.1 10.1 54 5.2 SE 9 15 5 8 1016.8 1015.7 0.0

Latest Capital City Observations: Canberra | Sydney | Melbourne | Brisbane | Adelaide | Perth | Hobart | Darwin

Other Formats:

Comma delimited format used in spreadsheet applications
http://www.bom.gov.au/fwo/IDS60901/IDS60901.94681.axf

JavaScript Object Notation format (JSON) in row-major order
http://www.bom.gov.au/fwo/IDS60901/IDS60901.94681.json